Time;durP1;ratioP1;P1;durP2;ratioP2;P2;SDS_P1;SDS_P2;PMS_P1;PMS_P2;Temp;Humidity;BMP_temperature;BMP_pressure;BME280_temperature;BME280_humidity;BME280_pressure;Samples;Min_cycle;Max_cycle;Signal;HPM_P1;HPM_P2
2022/05/17 00:01:23;;;;;;;2.45;0.40;;;;;;;21.30;33.08;101549.22;4934032;29;20185;-87
2022/05/17 00:03:52;;;;;;;0.60;0.30;;;;;;;21.22;34.04;101544.00;4937167;29;20107;-87
2022/05/17 00:06:23;;;;;;;3.95;0.60;;;;;;;21.07;34.78;101538.75;4939568;29;20059;-89
2022/05/17 00:08:52;;;;;;;0.30;0.30;;;;;;;20.89;34.38;101540.53;4940700;29;20411;-92
2022/05/17 00:11:20;;;;;;;1.50;0.52;;;;;;;20.74;34.57;101529.16;4941855;29;20079;-90
2022/05/17 00:13:53;;;;;;;1.48;0.38;;;;;;;20.58;34.88;101534.38;4946796;29;20047;-91
2022/05/17 00:16:22;;;;;;;2.15;0.57;;;;;;;20.43;35.22;101540.50;4959171;29;20109;-87
2022/05/17 00:18:51;;;;;;;1.17;0.50;;;;;;;20.29;35.24;101540.47;4959603;29;20051;-88
2022/05/17 00:21:20;;;;;;;0.55;0.43;;;;;;;20.19;35.24;101545.69;4962344;29;20043;-92
2022/05/17 00:23:49;;;;;;;1.08;0.45;;;;;;;20.07;35.79;101546.53;4968941;29;20067;-90
2022/05/17 00:26:18;;;;;;;2.25;0.57;;;;;;;20.04;35.97;101546.50;4958137;29;20087;-92
2022/05/17 00:28:46;;;;;;;0.88;0.40;;;;;;;20.14;35.93;101544.81;4965367;29;20047;-91
2022/05/17 00:31:16;;;;;;;1.75;0.63;;;;;;;20.21;35.76;101539.56;4958062;29;20051;-89
2022/05/17 00:33:45;;;;;;;1.30;0.50;;;;;;;20.29;35.54;101539.56;4956784;29;20082;-88
2022/05/17 00:36:13;;;;;;;1.67;0.50;;;;;;;20.37;35.82;101544.84;4955900;29;20546;-80
2022/05/17 00:38:42;;;;;;;1.88;0.50;;;;;;;20.40;36.01;101544.84;4958624;29;20051;-89
2022/05/17 00:41:10;;;;;;;1.52;0.57;;;;;;;20.30;36.32;101541.34;4958649;29;20497;-88
2022/05/17 00:46:32;;;;;;;1.70;0.70;;;;;;;20.11;36.31;101553.53;4959260;29;20062;-89
2022/05/17 00:49:02;;;;;;;3.22;0.70;;;;;;;19.96;36.42;101558.75;4941096;29;20055;-86
2022/05/17 00:51:32;;;;;;;4.03;1.08;;;;;;;19.82;35.74;101553.47;4938702;29;20082;-83
2022/05/17 00:54:04;;;;;;;1.38;0.75;;;;;;;19.69;36.58;101549.88;4934518;29;20087;-87
2022/05/17 00:56:34;;;;;;;3.03;0.85;;;;;;;19.58;36.34;101551.56;4933997;29;20051;-84
2022/05/17 00:59:04;;;;;;;1.88;0.88;;;;;;;19.48;36.87;101550.63;4933769;29;20107;-86
2022/05/17 01:01:36;;;;;;;2.20;0.65;;;;;;;19.35;36.52;101549.69;4933411;29;20051;-86
2022/05/17 01:04:09;;;;;;;1.52;0.60;;;;;;;19.27;37.27;101540.91;4932866;29;20680;-85
2022/05/17 01:06:42;;;;;;;2.38;0.60;;;;;;;19.19;38.44;101542.56;4932958;29;20055;-85
2022/05/17 01:09:12;;;;;;;1.77;0.70;;;;;;;19.13;38.34;101542.56;4933488;29;20047;-84
2022/05/17 01:11:41;;;;;;;1.35;0.60;;;;;;;19.04;37.50;101541.63;4936080;29;20566;-85
2022/05/17 01:16:57;;;;;;;1.48;0.60;;;;;;;18.83;37.06;101538.84;4952442;29;20118;-86
2022/05/17 01:19:26;;;;;;;1.58;0.40;;;;;;;18.78;37.27;101543.16;4952139;29;20051;-82
2022/05/17 01:21:56;;;;;;;1.85;0.63;;;;;;;18.85;38.16;101544.94;4952763;29;20126;-86
2022/05/17 01:24:25;;;;;;;2.97;0.73;;;;;;;18.92;36.98;101544.16;4953816;29;20047;-83
2022/05/17 01:27:00;;;;;;;1.10;0.60;;;;;;;18.88;37.77;101552.00;4953770;29;20047;-84
2022/05/17 01:29:28;;;;;;;1.65;0.80;;;;;;;18.85;38.34;101547.56;4954693;29;20085;-85
2022/05/17 01:31:57;;;;;;;2.70;0.60;;;;;;;18.83;38.41;101549.34;4952284;29;20054;-89
2022/05/17 01:34:25;;;;;;;1.50;0.60;;;;;;;18.86;37.23;101549.34;4956084;29;20111;-89
2022/05/17 01:36:55;;;;;;;3.00;0.90;;;;;;;18.82;37.84;101543.19;4954116;29;20607;-85
2022/05/17 01:39:25;;;;;;;1.63;0.60;;;;;;;18.75;39.03;101551.84;4952989;29;20051;-86
2022/05/17 01:41:53;;;;;;;1.42;0.57;;;;;;;18.72;38.91;101550.94;4953276;29;20108;-86
2022/05/17 01:44:22;;;;;;;0.88;0.40;;;;;;;18.66;38.53;101548.25;4952574;28;20529;-85
2022/05/17 01:46:51;;;;;;;1.98;0.90;;;;;;;18.66;39.02;101551.75;4951687;29;20054;-84
2022/05/17 01:49:20;;;;;;;1.83;0.70;;;;;;;18.67;39.08;101560.50;4935368;29;20107;-89
2022/05/17 01:51:48;;;;;;;2.35;0.57;;;;;;;18.68;38.60;101554.41;4937375;29;20094;-91
2022/05/17 01:54:18;;;;;;;1.63;0.68;;;;;;;18.68;38.54;101564.88;4936348;29;20087;-86
2022/05/17 01:56:47;;;;;;;3.15;1.00;;;;;;;18.70;38.27;101564.03;4933777;29;20502;-81
2022/05/17 01:59:16;;;;;;;2.72;0.80;;;;;;;18.66;37.89;101561.38;4934940;29;20059;-88
2022/05/17 02:01:45;;;;;;;2.00;0.63;;;;;;;18.58;38.51;101556.94;4936953;29;20056;-87
2022/05/17 02:04:14;;;;;;;2.58;0.60;;;;;;;18.59;37.95;101556.06;4940697;29;20058;-90
2022/05/17 02:06:42;;;;;;;4.10;0.63;;;;;;;18.49;39.07;101567.34;4938044;29;20051;-89
2022/05/17 02:09:11;;;;;;;2.25;0.70;;;;;;;18.39;37.74;101565.47;4938842;29;20103;-87
2022/05/17 02:11:42;;;;;;;1.35;0.60;;;;;;;18.32;38.35;101566.28;4936235;29;20090;-88
2022/05/17 02:14:11;;;;;;;3.40;0.70;;;;;;;18.18;38.74;101561.75;4946181;29;20083;-88
2022/05/17 02:16:40;;;;;;;3.17;1.00;;;;;;;18.16;38.16;101571.38;4956166;29;20059;-87
2022/05/17 02:19:09;;;;;;;1.55;0.77;;;;;;;18.09;39.21;101580.00;4956978;29;20051;-86
2022/05/17 02:21:39;;;;;;;3.70;0.68;;;;;;;18.03;39.14;101576.41;4953872;29;20051;-87
2022/05/17 02:24:10;;;;;;;1.70;0.85;;;;;;;18.01;38.85;101579.03;4958050;29;20043;-88
2022/05/17 02:26:38;;;;;;;2.85;0.82;;;;;;;18.00;39.43;101585.13;4956034;28;20059;-91
2022/05/17 02:29:09;;;;;;;1.67;0.88;;;;;;;17.94;39.54;101585.94;4955864;29;20517;-89
2022/05/17 02:31:38;;;;;;;3.00;0.98;;;;;;;17.90;40.75;101589.38;4960258;29;20572;-90
2022/05/17 02:34:06;;;;;;;2.20;0.82;;;;;;;17.89;39.77;101591.97;4947965;29;20106;-88
2022/05/17 02:36:34;;;;;;;3.47;0.82;;;;;;;17.84;39.99;101588.41;4936436;29;20082;-90
2022/05/17 02:39:03;;;;;;;2.40;0.95;;;;;;;17.75;40.46;101595.28;4933433;29;20501;-91
2022/05/17 02:41:32;;;;;;;4.03;0.93;;;;;;;17.67;40.37;101599.50;4936255;29;20084;-89
2022/05/17 02:44:00;;;;;;;2.92;0.93;;;;;;;17.55;38.89;101596.72;4943388;28;20094;-86
2022/05/17 02:46:33;;;;;;;1.13;0.57;;;;;;;17.44;39.67;101599.19;4934991;29;20115;-90
2022/05/17 02:49:04;;;;;;;3.10;0.77;;;;;;;17.36;40.28;101606.94;4932052;29;20055;-87
2022/05/17 02:51:34;;;;;;;1.63;0.60;;;;;;;17.28;40.61;101597.19;4933058;29;20066;-91
2022/05/17 02:54:05;;;;;;;1.83;0.57;;;;;;;17.16;40.90;101597.88;4938337;29;20048;-89
2022/05/17 02:56:34;;;;;;;1.90;0.70;;;;;;;17.08;41.13;101610.81;4938773;29;20052;-91
2022/05/17 02:59:02;;;;;;;3.47;0.60;;;;;;;17.00;42.08;101611.56;4941560;29;20051;-86
2022/05/17 03:01:33;;;;;;;1.83;0.57;;;;;;;16.90;41.54;101606.16;4933864;29;20686;-88
2022/05/17 03:04:14;;;;;;;0.60;0.30;;;;;;;16.84;42.55;101603.47;4932209;29;20083;-87
2022/05/17 03:06:44;;;;;;;2.42;0.77;;;;;;;16.76;42.90;101613.72;4935447;29;20051;-85
2022/05/17 03:09:13;;;;;;;2.28;0.60;;;;;;;16.68;42.62;101606.63;4932026;29;20059;-87
2022/05/17 03:11:43;;;;;;;1.92;0.70;;;;;;;16.59;43.09;101614.31;4931923;29;20126;-84
2022/05/17 03:14:11;;;;;;;2.08;0.52;;;;;;;16.50;43.33;101613.25;4941174;29;20051;-83
2022/05/17 03:16:42;;;;;;;1.85;0.75;;;;;;;16.46;43.54;101626.25;4949878;29;20047;-85
2022/05/17 03:19:10;;;;;;;2.40;0.40;;;;;;;16.40;44.01;101627.03;4949368;29;20094;-84
2022/05/17 03:21:39;;;;;;;1.38;0.50;;;;;;;16.35;44.16;101626.03;4949673;29;20078;-82
2022/05/17 03:24:09;;;;;;;0.75;0.45;;;;;;;16.28;44.34;101627.63;4950402;29;20047;-84
2022/05/17 03:26:37;;;;;;;2.40;0.65;;;;;;;16.15;44.76;101617.81;4949857;29;20668;-83
2022/05/17 03:29:05;;;;;;;2.15;0.68;;;;;;;16.17;44.57;101637.00;4950320;29;20098;-84
2022/05/17 03:31:35;;;;;;;1.42;0.50;;;;;;;16.10;44.93;101636.00;4950568;29;20557;-85
2022/05/17 03:34:05;;;;;;;1.48;0.52;;;;;;;16.06;45.23;101647.22;4950554;29;20079;-81
2022/05/17 03:36:33;;;;;;;1.08;0.57;;;;;;;16.03;46.05;101638.44;4950051;28;20047;-83
2022/05/17 03:39:02;;;;;;;2.47;0.55;;;;;;;15.96;45.70;101647.84;4953528;29;20486;-83
2022/05/17 03:41:30;;;;;;;2.63;0.45;;;;;;;15.92;46.92;101648.66;4953733;29;20059;-86
2022/05/17 03:43:59;;;;;;;3.25;0.65;;;;;;;15.87;46.18;101645.94;4954232;28;20051;-86
2022/05/17 03:46:27;;;;;;;1.48;0.70;;;;;;;15.83;46.30;101649.31;4953782;29;20043;-83
2022/05/17 03:48:56;;;;;;;2.20;0.60;;;;;;;15.76;47.00;101649.13;4938747;29;20055;-83
2022/05/17 03:51:26;;;;;;;2.45;0.88;;;;;;;15.71;46.97;101651.66;4934807;29;20130;-83
2022/05/17 03:53:54;;;;;;;2.40;0.60;;;;;;;15.67;47.22;101666.34;4937626;29;20058;-83
2022/05/17 03:56:23;;;;;;;2.40;0.77;;;;;;;15.63;48.04;101654.06;4935161;29;20051;-83
2022/05/17 03:58:51;;;;;;;4.95;0.88;;;;;;;15.58;48.96;101654.81;4934570;29;20051;-81
2022/05/17 04:01:20;;;;;;;1.65;0.75;;;;;;;15.56;49.07;101661.72;4934335;29;20099;-82
2022/05/17 04:03:48;;;;;;;1.20;0.75;;;;;;;15.53;48.51;101662.53;4934481;29;20087;-83
2022/05/17 04:06:16;;;;;;;0.95;0.65;;;;;;;15.42;48.78;101650.94;4934035;29;20055;-82
2022/05/17 04:08:46;;;;;;;1.17;0.63;;;;;;;15.47;49.22;101668.47;4934337;29;20059;-85
2022/05/17 04:11:15;;;;;;;2.80;0.63;;;;;;;15.43;48.86;101665.75;4933832;29;20087;-87
2022/05/17 04:13:43;;;;;;;1.95;0.60;;;;;;;15.38;49.29;101667.38;4940000;29;20552;-86
2022/05/17 04:16:12;;;;;;;1.27;0.70;;;;;;;15.34;48.89;101673.34;4953317;29;20048;-83
2022/05/17 04:18:41;;;;;;;2.58;0.85;;;;;;;15.26;48.43;101676.66;4952846;29;20511;-83
2022/05/17 04:21:10;;;;;;;2.78;1.00;;;;;;;15.21;49.40;101674.75;4953429;29;20083;-81
2022/05/17 04:23:38;;;;;;;2.85;0.70;;;;;;;15.17;48.95;101678.16;4952700;29;20063;-81
2022/05/17 04:26:08;;;;;;;3.13;0.85;;;;;;;15.14;48.61;101681.56;4953269;29;20126;-82
2022/05/17 04:28:37;;;;;;;1.48;0.90;;;;;;;15.10;49.37;101695.34;4952816;29;20118;-82
2022/05/17 04:31:05;;;;;;;2.45;0.85;;;;;;;15.05;49.81;101686.53;4953290;29;20135;-87
2022/05/17 04:33:33;;;;;;;2.20;0.80;;;;;;;15.01;49.96;101687.28;4952876;29;20066;-83
2022/05/17 04:36:02;;;;;;;1.13;0.60;;;;;;;14.97;53.31;101695.88;4952786;29;20062;-82
2022/05/17 04:38:31;;;;;;;4.68;1.20;;;;;;;14.92;52.56;101694.88;4953554;29;20051;-82
2022/05/17 04:40:59;;;;;;;2.65;1.10;;;;;;;14.85;51.03;101705.13;4952973;29;20055;-83
2022/05/17 04:43:29;;;;;;;5.85;1.00;;;;;;;14.72;51.88;101684.78;4953002;28;20051;-82
2022/05/17 04:45:58;;;;;;;3.47;0.82;;;;;;;14.76;51.56;101717.03;4953212;29;20493;-81
2022/05/17 04:48:30;;;;;;;2.55;0.88;;;;;;;14.67;52.92;101712.44;4944103;29;20130;-80
2022/05/17 04:50:59;;;;;;;2.53;1.08;;;;;;;14.59;55.35;101721.72;4934043;29;20137;-80
2022/05/17 04:53:32;;;;;;;5.22;1.13;;;;;;;14.55;54.59;101717.31;4932936;29;20054;-81
2022/05/17 04:56:00;;;;;;;2.55;0.90;;;;;;;14.53;55.54;101724.16;4933417;29;20119;-80
2022/05/17 04:58:30;;;;;;;2.78;1.05;;;;;;;14.51;55.31;101728.44;4932926;29;20139;-82
2022/05/17 05:00:58;;;;;;;3.20;1.30;;;;;;;14.48;54.94;101723.13;4932884;29;20058;-85
2022/05/17 05:03:27;;;;;;;2.95;0.88;;;;;;;14.44;56.65;101723.03;4932791;29;20052;-83
2022/05/17 05:05:55;;;;;;;3.83;1.05;;;;;;;14.42;56.16;101727.31;4933333;29;20132;-82
2022/05/17 05:08:24;;;;;;;3.38;1.20;;;;;;;14.42;55.10;101727.31;4932671;29;20131;-80
2022/05/17 05:10:52;;;;;;;5.00;1.20;;;;;;;14.39;56.43;101719.44;4932963;29;20048;-79
2022/05/17 05:13:22;;;;;;;4.85;0.95;;;;;;;14.35;58.13;101708.88;4934902;29;20069;-80
2022/05/17 05:15:54;;;;;;;3.38;1.08;;;;;;;14.37;58.24;101717.63;4951913;29;20146;-80
2022/05/17 05:18:22;;;;;;;2.08;0.85;;;;;;;14.30;58.69;101729.56;4951846;29;20052;-80
2022/05/17 05:20:50;;;;;;;6.82;1.05;;;;;;;14.24;54.88;101729.38;4952339;29;20130;-78
2022/05/17 05:23:19;;;;;;;3.38;0.80;;;;;;;14.15;53.96;101726.50;4951808;29;20055;-80
2022/05/17 05:25:48;;;;;;;1.67;0.82;;;;;;;14.01;56.33;101713.94;4951763;29;20050;-80
2022/05/17 05:28:16;;;;;;;2.25;0.80;;;;;;;14.12;57.13;101734.22;4951852;29;20062;-80
2022/05/17 05:30:44;;;;;;;5.10;1.33;;;;;;;14.09;55.25;101721.09;4951934;29;20128;-80
2022/05/17 05:33:14;;;;;;;4.70;1.00;;;;;;;14.02;55.55;101728.72;4951488;29;20051;-80
2022/05/17 05:35:43;;;;;;;1.23;0.90;;;;;;;13.96;55.34;101730.25;4951924;29;20058;-79
2022/05/17 05:38:11;;;;;;;1.85;0.70;;;;;;;13.87;54.33;101725.66;4951610;29;20086;-80
2022/05/17 05:40:41;;;;;;;4.43;0.93;;;;;;;13.81;55.53;101725.44;4951730;29;20086;-80
2022/05/17 05:43:09;;;;;;;3.80;1.15;;;;;;;13.80;55.24;101734.09;4953218;29;20102;-80
2022/05/17 05:45:38;;;;;;;4.97;1.08;;;;;;;13.76;53.95;101725.28;4953619;28;20513;-79
2022/05/17 05:48:07;;;;;;;2.70;1.10;;;;;;;13.76;55.57;101732.22;4943250;29;20126;-79
2022/05/17 05:50:38;;;;;;;5.97;1.20;;;;;;;13.71;56.38;101736.41;4932152;29;20129;-79
2022/05/17 05:53:09;;;;;;;2.05;0.85;;;;;;;13.62;55.22;101730.06;4932108;29;20560;-79
2022/05/17 05:55:38;;;;;;;3.22;0.75;;;;;;;13.61;55.94;101730.91;4932005;29;20083;-80
2022/05/17 05:58:08;;;;;;;3.35;0.90;;;;;;;13.60;56.11;101736.91;4932057;29;20082;-79
2022/05/17 06:00:37;;;;;;;1.38;0.73;;;;;;;13.55;54.42;101728.09;4930783;29;20142;-79
2022/05/17 06:03:06;;;;;;;5.38;1.13;;;;;;;13.56;55.79;101739.38;4931529;29;20056;-79
2022/05/17 06:05:36;;;;;;;2.60;0.90;;;;;;;13.53;55.39;101729.75;4931627;29;20110;-79
2022/05/17 06:08:07;;;;;;;3.33;1.20;;;;;;;13.49;54.82;101740.00;4931631;29;20051;-79
2022/05/17 06:10:35;;;;;;;1.80;1.00;;;;;;;13.46;54.95;101745.97;4931755;29;20575;-79
2022/05/17 06:13:04;;;;;;;3.10;0.90;;;;;;;13.45;57.04;101746.84;4932350;29;20142;-78
2022/05/17 06:15:32;;;;;;;3.70;0.95;;;;;;;13.40;56.50;101748.41;4950742;29;20051;-78
2022/05/17 06:18:03;;;;;;;1.98;0.90;;;;;;;13.38;55.67;101760.47;4950784;29;20122;-79
2022/05/17 06:20:31;;;;;;;8.68;1.10;;;;;;;13.35;54.54;101752.53;4950739;29;20544;-79
2022/05/17 06:23:00;;;;;;;2.90;0.80;;;;;;;13.31;52.95;101754.16;4950407;29;20093;-78
2022/05/17 06:25:30;;;;;;;4.60;0.70;;;;;;;13.31;53.11;101755.84;4950793;29;20128;-78
2022/05/17 06:27:59;;;;;;;2.75;0.80;;;;;;;13.33;55.17;101756.78;4951008;29;20126;-79
2022/05/17 06:30:27;;;;;;;3.75;0.90;;;;;;;13.32;55.13;101750.72;4950479;29;20055;-79
2022/05/17 06:32:56;;;;;;;6.18;1.25;;;;;;;13.27;56.54;101754.84;4950249;29;20102;-79
2022/05/17 06:35:24;;;;;;;3.45;0.90;;;;;;;13.22;55.40;101746.03;4950344;29;20473;-79
2022/05/17 06:37:53;;;;;;;2.95;0.63;;;;;;;13.11;55.11;101745.63;4951749;29;20043;-79
2022/05/17 06:40:21;;;;;;;2.88;1.05;;;;;;;13.14;54.85;101750.94;4953350;29;20055;-79
2022/05/17 06:42:52;;;;;;;3.55;0.75;;;;;;;13.12;55.48;101751.72;4950430;29;20225;-79
2022/05/17 06:45:20;;;;;;;3.08;0.98;;;;;;;13.08;59.02;101761.13;4950881;28;20114;-79
2022/05/17 06:47:49;;;;;;;2.55;0.85;;;;;;;13.00;56.94;101763.44;4944741;29;20130;-78
2022/05/17 06:50:17;;;;;;;4.30;0.85;;;;;;;12.95;58.75;101764.13;4931262;29;20111;-78
2022/05/17 06:52:45;;;;;;;3.40;0.88;;;;;;;12.84;57.58;101747.25;4930894;29;20067;-78
2022/05/17 06:55:14;;;;;;;2.70;0.80;;;;;;;12.88;55.59;101763.00;4931217;29;20106;-78
2022/05/17 06:57:43;;;;;;;2.75;0.82;;;;;;;12.83;55.54;101768.84;4931136;29;20051;-78
2022/05/17 07:00:15;;;;;;;6.43;1.02;;;;;;;12.68;58.99;101746.69;4931477;29;20043;-78
2022/05/17 07:02:43;;;;;;;1.85;0.80;;;;;;;12.70;58.80;101771.00;4930609;29;20054;-78
2022/05/17 07:05:12;;;;;;;5.85;1.33;;;;;;;12.64;57.93;101762.97;4931557;29;20128;-78
2022/05/17 07:07:41;;;;;;;5.18;1.42;;;;;;;12.65;56.39;101758.69;4930636;29;20122;-78
2022/05/17 07:13:13;;;;;;;1.50;0.77;;;;;;;12.57;57.16;101776.56;4934116;29;20083;-78
2022/05/17 07:15:45;;;;;;;3.55;0.90;;;;;;;12.47;57.23;101758.88;4916134;29;20115;-78
2022/05/17 07:18:15;;;;;;;4.32;1.15;;;;;;;12.48;56.61;101769.31;4933250;29;20058;-79
2022/05/17 07:20:44;;;;;;;1.25;0.80;;;;;;;12.44;56.43;101774.31;4934997;29;20055;-79
2022/05/17 07:23:14;;;;;;;3.25;1.00;;;;;;;12.34;57.56;101767.91;4934553;29;20051;-78
2022/05/17 07:25:44;;;;;;;1.95;0.82;;;;;;;12.24;60.99;101769.25;4934956;29;20135;-78
2022/05/17 07:28:17;;;;;;;4.07;1.15;;;;;;;12.18;61.40;101776.81;4934829;29;20060;-79
2022/05/17 07:30:47;;;;;;;7.10;1.00;;;;;;;12.13;58.87;101774.03;4934807;29;20052;-78
2022/05/17 07:33:16;;;;;;;3.53;1.42;;;;;;;12.08;59.10;101779.88;4934866;29;20134;-79
2022/05/17 07:35:45;;;;;;;4.88;1.17;;;;;;;12.04;59.02;101772.78;4954830;29;20057;-80
2022/05/17 07:38:13;;;;;;;1.52;0.70;;;;;;;12.01;58.67;101775.28;4954738;29;20051;-80
2022/05/17 07:40:43;;;;;;;2.00;0.88;;;;;;;11.96;58.15;101775.09;4954013;29;20055;-79
2022/05/17 07:43:13;;;;;;;4.03;0.93;;;;;;;11.90;57.60;101774.81;4953718;29;20071;-79
2022/05/17 07:45:41;;;;;;;7.40;1.10;;;;;;;11.85;57.17;101784.97;4953798;28;20089;-78
2022/05/17 07:48:12;;;;;;;3.60;1.25;;;;;;;11.79;57.40;101787.31;4944859;29;20096;-78
2022/05/17 07:50:41;;;;;;;4.25;1.05;;;;;;;11.69;57.40;101769.63;4933897;29;20510;-78
2022/05/17 07:53:11;;;;;;;4.95;0.93;;;;;;;11.74;57.32;101788.84;4934530;29;20166;-78
2022/05/17 07:55:40;;;;;;;2.85;0.75;;;;;;;11.71;58.07;101783.53;4934400;29;20095;-78
2022/05/17 07:58:09;;;;;;;1.80;1.05;;;;;;;11.65;58.32;101783.28;4934146;29;20423;-78
2022/05/17 08:00:38;;;;;;;1.65;0.90;;;;;;;11.62;58.55;101785.75;4933756;29;20136;-78
2022/05/17 08:03:08;;;;;;;2.47;0.70;;;;;;;11.56;59.72;101788.97;4934134;29;20047;-78
2022/05/17 08:05:39;;;;;;;3.28;1.08;;;;;;;11.51;60.00;101795.66;4934315;29;20086;-79
2022/05/17 08:08:08;;;;;;;3.28;1.10;;;;;;;11.47;60.04;101796.34;4933958;29;20154;-78
2022/05/17 08:10:37;;;;;;;1.15;1.05;;;;;;;11.43;59.87;101797.94;4933861;29;20568;-78
2022/05/17 08:13:05;;;;;;;2.90;0.90;;;;;;;11.41;59.02;101799.56;4934867;29;20475;-78
2022/05/17 08:15:34;;;;;;;3.40;1.15;;;;;;;11.32;59.68;101784.50;4953063;29;20560;-78
2022/05/17 08:18:04;;;;;;;5.75;1.08;;;;;;;11.32;59.79;101794.00;4953189;29;20493;-78
2022/05/17 08:20:34;;;;;;;1.95;0.90;;;;;;;11.29;60.12;101797.34;4952813;29;20138;-78
2022/05/17 08:23:05;;;;;;;2.55;0.90;;;;;;;11.26;59.25;101788.53;4952212;28;20056;-78
2022/05/17 08:28:19;;;;;;;3.45;1.00;;;;;;;11.20;59.67;101786.59;4953414;29;20081;-78
2022/05/17 08:30:50;;;;;;;4.05;0.82;;;;;;;11.21;59.94;101792.66;4953292;29;20576;-78
2022/05/17 08:33:20;;;;;;;3.35;0.80;;;;;;;11.21;60.45;101795.25;4956297;29;20047;-78
2022/05/17 08:35:51;;;;;;;4.15;0.98;;;;;;;11.20;60.80;101791.78;4952803;29;20053;-78
2022/05/17 08:38:24;;;;;;;1.10;0.80;;;;;;;11.21;61.20;101790.06;4953000;29;20118;-78
2022/05/17 08:41:00;;;;;;;2.85;0.73;;;;;;;11.18;61.27;101783.03;4953070;29;20139;-78
2022/05/17 08:43:38;;;;;;;4.82;0.82;;;;;;;11.07;61.43;101779.97;4952617;29;20047;-78
2022/05/17 08:46:25;;;;;;;2.53;1.30;;;;;;;11.04;62.39;101781.53;4953039;28;20086;-78
2022/05/17 08:48:56;;;;;;;2.80;0.75;;;;;;;11.07;62.50;101781.69;4938261;29;20050;-78
2022/05/17 08:51:33;;;;;;;5.57;0.77;;;;;;;11.10;62.83;101774.03;4933105;29;20055;-77
2022/05/17 08:54:06;;;;;;;4.40;0.93;;;;;;;11.13;63.40;101787.13;4933752;29;20051;-78
2022/05/17 08:56:40;;;;;;;3.83;1.35;;;;;;;11.14;63.29;101790.63;4932870;29;20087;-78
2022/05/17 08:59:11;;;;;;;2.28;0.80;;;;;;;11.07;63.13;101777.38;4933758;29;20139;-78
2022/05/17 09:01:46;;;;;;;3.80;1.13;;;;;;;11.11;62.46;101784.47;4932533;29;20059;-77
2022/05/17 09:04:30;;;;;;;2.90;0.88;;;;;;;11.04;61.58;101791.88;4933531;29;20055;-77
2022/05/17 09:07:09;;;;;;;1.65;0.73;;;;;;;11.03;61.40;101790.13;4933106;29;20051;-78
2022/05/17 09:09:47;;;;;;;2.55;0.80;;;;;;;11.06;62.20;101805.78;4933028;29;20090;-77
2022/05/17 09:12:24;;;;;;;3.83;0.82;;;;;;;11.04;63.27;101800.56;4933000;29;20055;-77
2022/05/17 09:14:57;;;;;;;4.50;0.90;;;;;;;11.04;62.62;101802.25;4947972;29;20139;-77
2022/05/17 09:17:27;;;;;;;3.38;0.88;;;;;;;11.04;63.08;101797.97;4952030;29;20075;-78
2022/05/17 09:19:56;;;;;;;4.05;1.23;;;;;;;11.03;62.21;101805.66;4952088;29;20098;-77
2022/05/17 09:22:25;;;;;;;4.05;0.85;;;;;;;11.01;63.58;101803.00;4951513;29;20141;-77
2022/05/17 09:25:00;;;;;;;1.85;0.63;;;;;;;11.10;65.77;101813.78;4952034;29;20055;-78
2022/05/17 09:27:30;;;;;;;2.10;0.88;;;;;;;11.09;66.70;101817.19;4952125;29;20055;-77
2022/05/17 09:30:06;;;;;;;3.80;1.33;;;;;;;11.06;64.77;101811.88;4955574;29;20135;-77
2022/05/17 09:32:39;;;;;;;1.33;0.70;;;;;;;11.04;64.45;101818.69;4945229;29;20139;-77
2022/05/17 09:35:15;;;;;;;2.05;0.77;;;;;;;11.06;64.02;101822.25;4930852;29;20055;-77
2022/05/17 09:37:47;;;;;;;2.78;0.90;;;;;;;11.06;63.05;101814.47;4933330;29;20047;-77
2022/05/17 09:40:24;;;;;;;2.90;0.65;;;;;;;11.07;63.37;101824.00;4933009;29;20103;-77
2022/05/17 09:43:01;;;;;;;2.15;1.30;;;;;;;11.07;63.46;101829.19;4932237;29;20044;-77
2022/05/17 09:45:41;;;;;;;3.17;1.20;;;;;;;11.09;62.53;101831.84;4933981;28;20116;-77
2022/05/17 09:48:11;;;;;;;2.78;0.90;;;;;;;11.03;63.68;101832.44;4932709;29;20048;-77
2022/05/17 09:53:42;;;;;;;2.53;0.80;;;;;;;11.01;65.30;101833.19;4933362;29;20062;-77
2022/05/17 09:56:13;;;;;;;1.98;0.93;;;;;;;11.03;65.13;101831.56;4932551;29;20079;-78
2022/05/17 09:58:43;;;;;;;1.15;0.68;;;;;;;11.04;64.61;101833.31;4932677;29;20047;-77
2022/05/17 10:01:16;;;;;;;3.60;0.85;;;;;;;11.04;64.82;101833.31;4932320;29;20051;-77
2022/05/17 10:03:58;;;;;;;1.92;0.85;;;;;;;11.01;64.55;101834.09;4932457;29;20052;-79
2022/05/17 10:06:30;;;;;;;;;;;;;;;11.01;64.52;101830.63;4933014;29;20139;-78
2022/05/17 10:09:02;;;;;;;1.35;0.90;;;;;;;11.01;65.13;101828.91;4932782;29;19953;-78
2022/05/17 10:11:44;;;;;;;3.65;0.70;;;;;;;11.02;64.46;101833.28;4932380;29;20111;-80
2022/05/17 10:14:21;;;;;;;2.20;0.82;;;;;;;11.00;65.18;101821.97;4941780;29;20091;-77
2022/05/17 10:16:53;;;;;;;5.60;0.82;;;;;;;11.00;65.18;101832.31;4952070;29;20540;-78
2022/05/17 10:19:37;;;;;;;4.53;1.10;;;;;;;10.97;65.10;101828.69;4951584;29;20055;-78
2022/05/17 10:22:16;;;;;;;2.00;0.90;;;;;;;10.96;64.79;101829.53;4950744;29;20086;-78
2022/05/17 10:24:51;;;;;;;2.58;0.95;;;;;;;10.92;64.73;101823.31;4951643;29;20043;-77
2022/05/17 10:27:28;;;;;;;2.65;0.77;;;;;;;10.87;64.88;101823.09;4954969;29;20051;-77
2022/05/17 10:30:00;;;;;;;3.45;0.90;;;;;;;10.87;64.35;101830.00;4951873;29;20055;-78
2022/05/17 10:32:32;;;;;;;3.53;0.88;;;;;;;10.85;64.81;101826.44;4950790;29;20054;-78
2022/05/17 10:35:05;;;;;;;6.47;1.00;;;;;;;10.82;65.50;101823.72;4950678;29;20043;-78
2022/05/17 10:37:37;;;;;;;2.17;0.80;;;;;;;10.81;64.91;101819.34;4950982;29;20082;-77
2022/05/17 10:40:09;;;;;;;3.22;0.73;;;;;;;10.79;65.12;101823.56;4950666;29;20107;-77
2022/05/17 10:42:40;;;;;;;2.53;0.70;;;;;;;10.72;65.06;101816.34;4938182;29;20174;-78
2022/05/17 10:45:16;;;;;;;4.10;0.80;;;;;;;10.68;65.42;101823.97;4931962;28;20135;-77
2022/05/17 10:47:50;;;;;;;6.22;1.08;;;;;;;10.64;66.15;101824.63;4936671;29;20070;-77
2022/05/17 10:50:36;;;;;;;3.60;0.77;;;;;;;10.62;66.68;101826.28;4950711;28;20093;-77
2022/05/17 10:53:20;;;;;;;4.03;0.85;;;;;;;10.59;67.75;101822.66;4950693;29;20529;-77
2022/05/17 10:56:01;;;;;;;0.82;0.60;;;;;;;10.54;68.66;101816.41;4950968;29;20054;-78
2022/05/17 10:58:44;;;;;;;4.22;1.30;;;;;;;10.45;69.66;101819.44;4950923;29;20055;-77
2022/05/17 11:01:21;;;;;;;1.38;0.85;;;;;;;10.41;69.47;101822.69;4950989;29;20154;-78
2022/05/17 11:04:17;;;;;;;4.05;0.90;;;;;;;10.37;69.16;101820.75;4950792;29;20138;-78
2022/05/17 11:06:52;;;;;;;1.65;0.80;;;;;;;10.32;71.05;101820.53;4947671;29;20075;-78
2022/05/17 11:09:29;;;;;;;4.47;1.08;;;;;;;10.26;71.83;101820.22;4950680;29;20137;-78
2022/05/17 11:12:05;;;;;;;2.65;1.10;;;;;;;10.18;70.72;101817.28;4951235;29;20505;-78
2022/05/17 11:14:45;;;;;;;2.72;1.02;;;;;;;10.12;70.76;101826.44;4924854;29;20056;-78
2022/05/17 11:17:25;;;;;;;6.32;0.82;;;;;;;10.12;70.69;101814.38;4942040;29;20134;-78
2022/05/17 11:20:04;;;;;;;1.77;1.10;;;;;;;10.12;70.41;101823.84;4912944;29;20052;-78
2022/05/17 11:22:39;;;;;;;3.55;0.98;;;;;;;10.06;71.12;101822.75;4920838;29;20055;-78
2022/05/17 11:25:40;;;;;;;2.60;1.27;;;;;;;10.03;71.11;101826.88;4935829;29;20056;-78
2022/05/17 11:28:50;;;;;;;5.57;1.20;;;;;;;9.98;71.50;101826.63;4932458;29;20047;-79
2022/05/17 11:31:30;;;;;;;2.97;1.10;;;;;;;9.94;71.05;101821.25;4918557;29;20040;-78
2022/05/17 11:34:35;;;;;;;2.47;0.95;;;;;;;9.90;71.80;101830.56;4935213;29;20079;-79
2022/05/17 11:37:08;;;;;;;3.60;1.08;;;;;;;9.86;71.99;101838.97;4950815;29;20073;-79
2022/05/17 11:39:50;;;;;;;2.97;0.90;;;;;;;9.81;71.53;101841.31;4951009;29;20131;-78
2022/05/17 11:42:31;;;;;;;2.97;0.95;;;;;;;9.78;72.22;101843.78;4938224;29;20513;-78
2022/05/17 11:45:19;;;;;;;5.93;1.20;;;;;;;9.74;73.27;101843.53;4930183;28;20063;-78
2022/05/17 11:47:57;;;;;;;2.60;1.00;;;;;;;9.69;72.80;101832.97;4931745;29;20453;-78
2022/05/17 11:50:54;;;;;;;3.00;1.08;;;;;;;9.64;73.69;101839.56;4932786;29;20270;-78
2022/05/17 11:53:46;;;;;;;1.30;0.68;;;;;;;9.61;74.05;101835.16;4931482;29;20070;-78
2022/05/17 11:56:34;;;;;;;2.70;0.82;;;;;;;9.58;73.67;101844.47;4927681;29;20059;-78
2022/05/17 11:59:39;;;;;;;5.47;1.35;;;;;;;9.55;74.82;101839.13;4933620;29;20051;-78
2022/05/17 12:02:11;;;;;;;3.17;1.02;;;;;;;9.51;75.32;101850.13;4935539;29;20498;-78